Time;durP1;ratioP1;P1;durP2;ratioP2;P2;SDS_P1;SDS_P2;PMS_P1;PMS_P2;Temp;Humidity;BMP_temperature;BMP_pressure;BME280_temperature;BME280_humidity;BME280_pressure;Samples;Min_cycle;Max_cycle;Signal;HPM_P1;HPM_P2
2022/10/09 08:37:06;;;;;;;;;;;;;;;11.18;100.00;101255.06;2876995;19;3686638;-51
2022/10/09 08:38:08;;;;;;;;;;;;;;;11.26;100.00;101246.63;3070835;19;20256;-50
2022/10/09 08:39:32;;;;;;;;;;;;;;;11.40;100.00;101243.22;3070398;19;19918;-53
2022/10/09 08:40:37;;;;;;;;;;;;;;;11.54;100.00;101240.69;3070784;19;19914;-54
2022/10/09 08:41:46;;;;;;;;;;;;;;;11.69;100.00;101245.22;3069498;19;19927;-50
2022/10/09 08:42:50;;;;;;;;;;;;;;;11.87;100.00;101244.25;3070068;19;20363;-51
2022/10/09 08:43:58;;;;;;;;;;;;;;;12.05;100.00;101253.06;3069778;19;19919;-51
2022/10/09 08:45:02;;;;;;;;;;;;;;;12.19;100.00;101254.97;3070862;19;19948;-54
2022/10/09 08:46:07;;;;;;;;;;;;;;;12.35;100.00;101266.53;3069208;19;19922;-52
2022/10/09 08:47:49;;;;;;;;;;;;;;;12.45;100.00;101275.75;3069792;19;19923;-53
2022/10/09 08:48:51;;;;;;;;;;;;;;;12.63;100.00;101281.91;3069100;19;19922;-51
2022/10/09 08:49:56;;;;;;;;;;;;;;;12.78;100.00;101290.88;3068835;19;19919;-54
2022/10/09 08:50:58;;;;;;;;;;;;;;;12.88;100.00;101297.41;3069287;19;19926;-50
2022/10/09 08:52:05;;;;;;;;;;;;;;;12.98;100.00;101309.31;3068190;19;19950;-53
2022/10/09 08:53:20;;;;;;;;;;;;;;;13.04;100.00;101314.31;3069020;19;20349;-52
2022/10/09 08:54:31;;;;;;;;;;;;;;;13.06;100.00;101323.13;3069092;19;19926;-52
2022/10/09 08:55:40;;;;;;;;;;;;;;;13.08;100.00;101331.94;3070453;19;19919;-51
2022/10/09 08:56:42;;;;;;;;;;;;;;;13.05;100.00;101347.31;3068945;19;19918;-53
2022/10/09 08:57:46;;;;;;;;;;;;;;;13.09;100.00;101355.09;3069558;19;19918;-52
2022/10/09 08:58:48;;;;;;;;;;;;;;;13.07;100.00;101356.13;3069498;19;19919;-53
2022/10/09 08:59:52;;;;;;;;;;;;;;;13.06;100.00;101366.00;3068675;19;20403;-50
2022/10/09 09:00:57;;;;;;;;;;;;;;;12.92;100.00;101374.00;3069275;19;20364;-52
2022/10/09 09:02:05;;;;;;;;;;;;;;;13.05;100.00;101374.97;3069687;19;19922;-50
2022/10/09 09:03:29;;;;;;;;;;;;;;;13.07;100.00;101373.09;3069493;19;20581;-54
2022/10/09 09:04:34;;;;;;;;;;;;;;;13.10;100.00;101380.09;3070053;19;19918;-52
2022/10/09 09:05:53;;;;;;;;;;;;;;;13.22;100.00;101372.22;3070390;19;20013;-52
2022/10/09 09:07:10;;;;;;;;;;;;;;;13.12;100.00;101383.56;3070321;19;19948;-51
2022/10/09 09:08:18;;;;;;;;;;;;;;;13.33;100.00;101375.16;3069587;19;20016;-50
2022/10/09 09:09:20;;;;;;;;;;;;;;;13.53;100.00;101375.78;3069548;19;19963;-52
2022/10/09 09:10:27;;;;;;;;;;;;;;;13.56;100.00;101394.38;3069336;19;19945;-51
2022/10/09 09:11:35;;;;;;;;;;;;;;;13.72;100.00;101376.41;3069438;19;19923;-52
2022/10/09 09:12:37;;;;;;;;;;;;;;;13.94;100.00;101392.06;3070454;19;19915;-51
2022/10/09 09:13:44;;;;;;;;;;;;;;;14.09;100.00;101395.63;3069854;19;19930;-54
2022/10/09 09:14:55;;;;;;;;;;;;;;;14.05;100.00;101408.38;3070437;19;19922;-51
2022/10/09 09:16:02;;;;;;;;;;;;;;;14.17;100.00;101409.44;3070997;19;20005;-53
2022/10/09 09:17:11;;;;;;;;;;;;;;;14.28;100.00;101409.63;3069088;19;19919;-51
2022/10/09 09:18:19;;;;;;;;;;;;;;;14.30;100.00;101415.78;3069716;19;19986;-54
2022/10/09 09:19:33;;;;;;;;;;;;;;;14.31;100.00;101415.69;3069350;19;19922;-52
2022/10/09 09:20:49;;;;;;;;;;;;;;;14.39;100.00;101415.19;3070334;19;19930;-54
2022/10/09 09:21:52;;;;;;;;;;;;;;;14.47;100.00;101412.94;3069923;19;19918;-54
2022/10/09 09:22:56;;;;;;;;;;;;;;;14.57;100.00;101413.22;3070367;19;19919;-51
2022/10/09 09:23:58;;;;;;;;;;;;;;;14.64;100.00;101426.16;3068981;19;19926;-52
2022/10/09 09:25:03;;;;;;;;;;;;;;;14.66;100.00;101423.38;3069649;19;20203;-53
2022/10/09 09:26:10;;;;;;;;;;;;;;;14.76;100.00;101424.50;3068749;19;19926;-51
2022/10/09 09:27:16;;;;;;;;;;;;;;;14.86;100.00;101431.00;3069397;19;20233;-53
2022/10/09 09:28:17;;;;;;;;;;;;;;;14.91;100.00;101433.41;3068936;19;20018;-52
2022/10/09 09:29:24;;;;;;;;;;;;;;;14.93;100.00;101436.88;3069116;19;19945;-50
2022/10/09 09:30:28;;;;;;;;;;;;;;;14.87;100.00;101437.25;3069047;19;19922;-52
2022/10/09 09:31:35;;;;;;;;;;;;;;;14.82;100.00;101444.75;3069185;19;19938;-52
2022/10/09 09:32:48;;;;;;;;;;;;;;;14.77;100.00;101451.28;3069221;19;20349;-51
2022/10/09 09:33:55;;;;;;;;;;;;;;;14.69;100.00;101453.59;3068982;19;19927;-52
2022/10/09 09:35:18;;;;;;;;;;;;;;;14.46;100.00;101448.81;2989930;19;19923;-54
2022/10/09 09:36:51;;;;;;;;;;;;;;;14.43;100.00;101451.69;2861505;19;3008940;-50
2022/10/09 09:37:56;;;;;;;;;;;;;;;14.40;100.00;101444.66;2991242;19;19932;-53
2022/10/09 09:38:58;;;;;;;;;;;;;;;14.35;100.00;101445.91;3069239;19;19943;-50
2022/10/09 09:40:22;;;;;;;;;;;;;;;14.23;100.00;101449.34;3069376;19;19986;-50
2022/10/09 09:41:38;;;;;;;;;;;;;;;14.15;100.00;101454.28;3069164;19;20241;-50
2022/10/09 09:42:43;;;;;;;;;;;;;;;14.17;100.00;101447.00;3068302;19;19927;-54
2022/10/09 09:43:48;;;;;;;;;;;;;;;14.19;100.00;101455.84;3069614;19;19919;-53
2022/10/09 09:44:53;;;;;;;;;;;;;;;14.10;100.00;101457.28;3069698;19;20332;-52
2022/10/09 09:45:58;;;;;;;;;;;;;;;14.11;100.00;101444.72;3070450;19;19957;-51
2022/10/09 09:47:00;;;;;;;;;;;;;;;14.10;100.00;101457.28;3068121;19;19995;-53
2022/10/09 09:48:13;;;;;;;;;;;;;;;14.20;100.00;101449.53;3061518;19;19930;-53
2022/10/09 09:49:19;;;;;;;;;;;;;;;14.22;100.00;101450.31;3057883;19;19935;-51
2022/10/09 09:50:50;;;;;;;;;;;;;;;14.26;100.00;101462.56;3057086;19;19919;-50
2022/10/09 09:52:15;;;;;;;;;;;;;;;14.21;100.00;101456.63;3059149;19;19929;-54
2022/10/09 09:53:17;;;;;;;;;;;;;;;14.23;100.00;101466.31;3058075;19;19927;-50
2022/10/09 09:54:25;;;;;;;;;;;;;;;14.17;100.00;101463.13;3056793;19;19942;-51
2022/10/09 09:55:28;;;;;;;;;;;;;;;14.07;100.00;101466.38;3057572;19;19919;-53
2022/10/09 09:56:37;;;;;;;;;;;;;;;13.97;100.00;101461.66;3058027;19;20456;-54
2022/10/09 09:58:05;;;;;;;;;;;;;;;13.96;100.00;101468.84;3055927;19;20011;-54
2022/10/09 09:59:07;;;;;;;;;;;;;;;13.83;100.00;101459.81;3057076;19;19925;-50
2022/10/09 10:00:17;;;;;;;;;;;;;;;13.83;100.00;101454.44;3056837;19;19966;-53
2022/10/09 10:01:29;;;;;;;;;;;;;;;13.78;100.00;101469.94;3056584;19;20014;-53
2022/10/09 10:02:31;;;;;;;;;;;;;;;13.80;100.00;101467.16;3057766;19;20329;-53
2022/10/09 10:03:36;;;;;;;;;;;;;;;13.79;100.00;101463.59;3052296;19;20034;-52
2022/10/09 10:05:10;;;;;;;;;;;;;;;13.76;100.00;101468.31;3057156;19;19940;-51
2022/10/09 10:06:42;;;;;;;;;;;;;;;13.62;100.00;101471.81;3056068;19;19995;-51
2022/10/09 10:07:44;;;;;;;;;;;;;;;13.70;100.00;101467.72;3056913;19;19941;-54
2022/10/09 10:08:48;;;;;;;;;;;;;;;13.81;100.00;101467.06;3058603;19;19955;-52
2022/10/09 10:09:59;;;;;;;;;;;;;;;13.74;100.00;101476.44;3057363;19;19942;-54
2022/10/09 10:11:06;;;;;;;;;;;;;;;13.82;100.00;101479.53;3057784;19;20342;-51
2022/10/09 10:12:11;;;;;;;;;;;;;;;13.73;100.00;101481.91;3057734;19;19926;-53
2022/10/09 10:13:17;;;;;;;;;;;;;;;13.72;100.00;101489.09;3056433;19;20227;-51
2022/10/09 10:14:19;;;;;;;;;;;;;;;13.66;100.00;101484.06;3056740;19;19918;-52
2022/10/09 10:15:25;;;;;;;;;;;;;;;13.70;100.00;101488.31;3056572;19;19930;-54
2022/10/09 10:16:29;;;;;;;;;;;;;;;13.56;100.00;101488.25;3057509;19;19931;-53
2022/10/09 10:17:31;;;;;;;;;;;;;;;13.44;100.00;101488.94;3057055;19;19950;-52
2022/10/09 10:18:44;;;;;;;;;;;;;;;13.30;100.00;101492.41;3056453;19;19923;-50
2022/10/09 10:19:48;;;;;;;;;;;;;;;13.23;100.00;101486.56;3056313;19;20274;-51
2022/10/09 10:20:53;;;;;;;;;;;;;;;13.25;100.00;101484.66;3056684;19;19919;-52
2022/10/09 10:22:02;;;;;;;;;;;;;;;13.31;100.00;101488.78;3056180;19;19919;-52
2022/10/09 10:23:03;;;;;;;;;;;;;;;13.33;100.00;101482.41;3057624;19;19969;-54
2022/10/09 10:24:08;;;;;;;;;;;;;;;13.28;100.00;101484.47;3057194;19;19923;-50
2022/10/09 10:25:13;;;;;;;;;;;;;;;13.33;100.00;101486.88;3056513;19;19915;-50
2022/10/09 10:26:28;;;;;;;;;;;;;;;13.33;100.00;101489.56;3055953;19;19926;-50
2022/10/09 10:27:40;;;;;;;;;;;;;;;13.44;100.00;101484.44;3057026;19;19914;-52
2022/10/09 10:28:51;;;;;;;;;;;;;;;13.52;100.00;101484.03;3057500;19;19943;-52
2022/10/09 10:29:55;;;;;;;;;;;;;;;13.39;100.00;101480.31;3056467;19;19958;-51
2022/10/09 10:30:59;;;;;;;;;;;;;;;13.40;100.00;101492.78;3056584;19;19926;-49
2022/10/09 10:32:04;;;;;;;;;;;;;;;13.51;100.00;101490.34;3056163;19;20330;-52
2022/10/09 10:33:11;;;;;;;;;;;;;;;13.53;100.00;101486.59;3056463;19;19954;-52
2022/10/09 10:34:16;;;;;;;;;;;;;;;13.48;100.00;101493.19;3056967;19;19933;-52
2022/10/09 10:35:46;;;;;;;;;;;;;;;13.45;100.00;101506.78;3056355;19;20321;-51
2022/10/09 10:36:50;;;;;;;;;;;;;;;13.37;100.00;101504.53;3055823;19;19991;-53
2022/10/09 10:37:54;;;;;;;;;;;;;;;13.37;100.00;101501.00;3056197;19;19919;-51
2022/10/09 10:39:04;;;;;;;;;;;;;;;13.31;100.00;101511.09;3056502;19;19922;-53
2022/10/09 10:40:15;;;;;;;;;;;;;;;13.30;100.00;101504.00;3057184;19;19926;-53
2022/10/09 10:41:25;;;;;;;;;;;;;;;13.23;100.00;101491.03;3056155;19;20560;-52
2022/10/09 10:42:32;;;;;;;;;;;;;;;13.23;100.00;101502.63;3057052;19;19914;-51
2022/10/09 10:43:39;;;;;;;;;;;;;;;13.06;100.00;101505.34;3057649;19;19946;-50
2022/10/09 10:44:59;;;;;;;;;;;;;;;13.03;100.00;101505.53;3056133;19;19926;-54
2022/10/09 10:46:01;;;;;;;;;;;;;;;13.00;100.00;101505.72;3056066;19;20317;-52
2022/10/09 10:47:06;;;;;;;;;;;;;;;13.05;100.00;101502.75;3055836;19;19923;-54
2022/10/09 10:48:12;;;;;;;;;;;;;;;13.01;100.00;101512.81;3057065;19;21185;-52
2022/10/09 10:49:23;;;;;;;;;;;;;;;12.97;100.00;101508.53;3057812;19;20348;-52
2022/10/09 10:50:27;;;;;;;;;;;;;;;13.13;100.00;101504.06;3056386;19;20269;-52
2022/10/09 10:51:31;;;;;;;;;;;;;;;13.24;100.00;101509.72;3056785;19;19918;-52
2022/10/09 10:52:33;;;;;;;;;;;;;;;13.18;100.00;101503.84;3055819;19;19974;-50
2022/10/09 10:53:56;;;;;;;;;;;;;;;13.28;100.00;101516.63;3056527;19;20321;-52
2022/10/09 10:55:01;;;;;;;;;;;;;;;13.29;100.00;101504.94;3056585;19;19954;-50
2022/10/09 10:56:07;;;;;;;;;;;;;;;13.42;100.00;101501.56;3056019;19;19939;-53
2022/10/09 10:57:10;;;;;;;;;;;;;;;13.50;100.00;101510.94;3055767;19;20677;-49
2022/10/09 10:58:14;;;;;;;;;;;;;;;13.59;100.00;101505.03;3055479;19;20046;-50
2022/10/09 10:59:32;;;;;;;;;;;;;;;13.63;100.00;101511.97;3055548;19;19927;-50
2022/10/09 11:00:38;;;;;;;;;;;;;;;13.72;100.00;101513.22;3054079;19;19930;-50
2022/10/09 11:01:43;;;;;;;;;;;;;;;13.83;100.00;101518.84;3056455;19;19923;-49
2022/10/09 11:02:59;;;;;;;;;;;;;;;13.92;100.00;101518.28;3055797;19;19919;-50
2022/10/09 11:04:21;;;;;;;;;;;;;;;14.06;100.00;101520.16;3055213;19;19943;-50
2022/10/09 11:05:26;;;;;;;;;;;;;;;14.13;100.00;101524.19;3056177;19;19926;-50
2022/10/09 11:06:43;;;;;;;;;;;;;;;14.17;100.00;101524.88;3056375;19;19955;-49
2022/10/09 11:08:00;;;;;;;;;;;;;;;14.12;100.00;101525.16;3055787;19;19931;-50
2022/10/09 11:09:01;;;;;;;;;;;;;;;14.19;100.00;101525.66;3054260;19;19934;-51
2022/10/09 11:10:09;;;;;;;;;;;;;;;13.99;100.00;101529.53;3056381;19;20003;-50
2022/10/09 11:11:13;;;;;;;;;;;;;;;14.12;100.00;101527.00;3056847;19;19926;-51
2022/10/09 11:12:21;;;;;;;;;;;;;;;14.20;100.00;101528.25;3055637;19;19923;-51
2022/10/09 11:13:50;;;;;;;;;;;;;;;14.24;100.00;101523.56;3054241;19;19922;-52
2022/10/09 11:14:56;;;;;;;;;;;;;;;14.28;100.00;101530.47;3055472;19;19927;-50
2022/10/09 11:16:06;;;;;;;;;;;;;;;14.28;100.00;101531.31;3056220;19;19958;-49
2022/10/09 11:17:25;;;;;;;;;;;;;;;14.19;100.00;101531.03;3057114;19;20222;-50
2022/10/09 11:18:30;;;;;;;;;;;;;;;14.31;100.00;101524.91;3055704;19;19947;-51
2022/10/09 11:19:44;;;;;;;;;;;;;;;14.43;100.00;101521.50;3056326;19;19914;-51
2022/10/09 11:20:58;;;;;;;;;;;;;;;14.61;100.00;101523.06;3056989;19;19940;-51
2022/10/09 11:22:22;;;;;;;;;;;;;;;14.66;100.00;101531.69;3056968;19;19922;-51
2022/10/09 11:23:29;;;;;;;;;;;;;;;14.87;100.00;101524.13;3057065;19;19950;-51
2022/10/09 11:24:40;;;;;;;;;;;;;;;14.99;100.00;101527.84;3056672;19;19926;-51
2022/10/09 11:25:52;;;;;;;;;;;;;;;15.05;100.00;101522.09;3056951;19;19936;-51
2022/10/09 11:26:54;;;;;;;;;;;;;;;15.16;100.00;101527.66;3056793;19;19915;-51
2022/10/09 11:28:15;;;;;;;;;;;;;;;15.30;100.00;101519.56;3057098;19;19934;-51
2022/10/09 11:29:19;;;;;;;;;;;;;;;15.42;100.00;101524.16;3056012;19;20091;-51
2022/10/09 11:30:25;;;;;;;;;;;;;;;15.55;100.00;101526.06;3055896;19;19947;-52
2022/10/09 11:31:48;;;;;;;;;;;;;;;15.58;100.00;101525.88;3055994;19;20245;-51
2022/10/09 11:33:11;;;;;;;;;;;;;;;15.71;100.00;101524.94;3056066;19;19919;-50
2022/10/09 11:34:15;;;;;;;;;;;;;;;15.85;100.00;101526.72;3056786;19;19925;-51
2022/10/09 11:35:23;;;;;;;;;;;;;;;15.94;100.00;101526.09;3055723;19;19923;-51
2022/10/09 11:36:26;;;;;;;;;;;;;;;16.04;100.00;101529.03;3055717;19;20000;-51
2022/10/09 11:37:35;;;;;;;;;;;;;;;16.07;100.00;101526.97;3055853;19;19922;-50
2022/10/09 11:38:38;;;;;;;;;;;;;;;16.00;100.00;101533.75;3055640;19;20278;-50
2022/10/09 11:39:43;;;;;;;;;;;;;;;16.03;100.00;101532.69;3055626;19;20334;-51
2022/10/09 11:40:44;;;;;;;;;;;;;;;16.07;100.00;101529.66;3055821;19;19919;-50
2022/10/09 11:41:49;;;;;;;;;;;;;;;16.15;100.00;101527.34;3055967;19;19927;-51
2022/10/09 11:43:10;;;;;;;;;;;;;;;16.27;100.00;101524.78;3055502;19;19915;-50
2022/10/09 11:44:32;;;;;;;;;;;;;;;16.23;100.00;101528.63;3056516;19;19941;-50
2022/10/09 11:45:40;;;;;;;;;;;;;;;16.34;100.00;101526.06;3056554;19;19923;-51
2022/10/09 11:46:54;;;;;;;;;;;;;;;16.31;100.00;101532.50;3056866;19;19926;-50
2022/10/09 11:47:56;;;;;;;;;;;;;;;16.31;100.00;101528.97;3055763;19;20422;-52
2022/10/09 11:49:00;;;;;;;;;;;;;;;16.21;100.00;101539.50;3055756;19;20215;-51
2022/10/09 11:50:05;;;;;;;;;;;;;;;16.14;100.00;101528.31;3056753;19;19926;-51
2022/10/09 11:51:28;;;;;;;;;;;;;;;16.12;100.00;101535.63;3056632;19;19922;-51
2022/10/09 11:52:48;;;;;;;;;;;;;;;16.09;100.00;101533.13;3055956;19;20015;-52
2022/10/09 11:53:54;;;;;;;;;;;;;;;16.17;100.00;101530.78;3055815;19;19946;-52
2022/10/09 11:55:06;;;;;;;;;;;;;;;16.29;100.00;101529.09;3055839;19;19915;-51
2022/10/09 11:56:21;;;;;;;;;;;;;;;16.23;100.00;101531.31;3055738;19;19938;-50
2022/10/09 11:57:27;;;;;;;;;;;;;;;16.33;100.00;101529.72;3056349;19;20321;-51
2022/10/09 11:58:31;;;;;;;;;;;;;;;16.19;100.00;101522.59;3056617;19;20326;-50
2022/10/09 11:59:35;;;;;;;;;;;;;;;16.30;100.00;101525.41;3056064;19;19942;-51
2022/10/09 12:00:39;;;;;;;;;;;;;;;16.34;100.00;101528.75;3056577;19;19931;-50
2022/10/09 12:01:43;;;;;;;;;;;;;;;16.42;100.00;101524.56;3056241;19;20255;-51
2022/10/09 12:02:56;;;;;;;;;;;;;;;16.47;100.00;101537.72;3056335;19;19941;-50
2022/10/09 12:03:59;;;;;;;;;;;;;;;16.59;100.00;101542.25;3056108;19;20242;-51
2022/10/09 12:05:04;;;;;;;;;;;;;;;16.67;100.00;101537.22;3056710;19;19922;-51
2022/10/09 12:06:06;;;;;;;;;;;;;;;16.81;100.00;101530.84;3055304;19;20312;-51
2022/10/09 12:07:11;;;;;;;;;;;;;;;16.90;100.00;101539.13;3055755;19;19919;-51
2022/10/09 12:08:16;;;;;;;;;;;;;;;16.97;100.00;101536.00;3056267;19;19918;-51
2022/10/09 12:09:41;;;;;;;;;;;;;;;16.97;100.00;101533.31;3056515;19;19918;-51
2022/10/09 12:10:53;;;;;;;;;;;;;;;17.05;100.00;101534.47;3055188;19;20336;-51
2022/10/09 12:11:58;;;;;;;;;;;;;;;17.10;100.00;101534.16;3055412;19;19935;-51
2022/10/09 12:13:01;;;;;;;;;;;;;;;17.09;100.00;101538.69;3055471;19;19915;-51
2022/10/09 12:14:07;;;;;;;;;;;;;;;17.00;100.00;101533.97;3055824;19;20257;-51
2022/10/09 12:15:11;;;;;;;;;;;;;;;17.07;100.00;101526.28;3056782;19;19922;-51
2022/10/09 12:16:34;;;;;;;;;;;;;;;17.08;100.00;101531.56;3055967;19;20369;-52
2022/10/09 12:17:38;;;;;;;;;;;;;;;17.13;100.00;101533.94;3056355;19;19946;-50
2022/10/09 12:18:43;;;;;;;;;;;;;;;17.21;100.00;101529.72;3055295;19;20023;-51
2022/10/09 12:19:48;;;;;;;;;;;;;;;17.33;100.00;101537.88;3054704;19;19922;-51
2022/10/09 12:20:50;;;;;;;;;;;;;;;17.30;100.00;101533.56;3055227;19;19915;-51
2022/10/09 12:21:56;;;;;;;;;;;;;;;17.37;100.00;101537.56;3055114;19;19922;-51
2022/10/09 12:23:01;;;;;;;;;;;;;;;17.21;100.00;101534.25;3055110;19;19935;-51
2022/10/09 12:24:27;;;;;;;;;;;;;;;16.97;99.11;101533.31;3055327;19;19915;-52
2022/10/09 12:25:39;;;;;;;;;;;;;;;17.02;100.00;101533.88;3055545;19;19918;-52
2022/10/09 12:26:43;;;;;;;;;;;;;;;17.09;100.00;101537.84;3055955;19;19926;-50
2022/10/09 12:27:45;;;;;;;;;;;;;;;17.14;100.00;101538.38;3055327;19;19918;-50
2022/10/09 12:28:53;;;;;;;;;;;;;;;17.21;100.00;101539.66;3054959;19;19923;-51
2022/10/09 12:29:56;;;;;;;;;;;;;;;17.20;100.00;101536.06;3055776;19;19927;-51
2022/10/09 12:31:01;;;;;;;;;;;;;;;17.08;100.00;101528.88;3055820;19;20029;-51
2022/10/09 12:32:07;;;;;;;;;;;;;;;17.11;100.00;101533.19;3055381;19;19923;-51
2022/10/09 12:33:20;;;;;;;;;;;;;;;17.15;100.00;101532.84;3054795;19;20021;-51
2022/10/09 12:34:29;;;;;;;;;;;;;;;17.23;100.00;101533.16;3055435;19;19918;-51
2022/10/09 12:35:36;;;;;;;;;;;;;;;17.34;100.00;101529.69;3055058;19;19930;-51
2022/10/09 12:36:37;;;;;;;;;;;;;;;17.44;100.00;101525.31;3054899;19;19974;-51
2022/10/09 12:37:42;;;;;;;;;;;;;;;17.50;100.00;101533.00;3054626;19;19932;-50
2022/10/09 12:38:44;;;;;;;;;;;;;;;17.43;100.00;101529.00;3055432;19;20748;-51
2022/10/09 12:39:50;;;;;;;;;;;;;;;17.34;100.00;101524.28;3054390;19;19919;-51
2022/10/09 12:40:52;;;;;;;;;;;;;;;17.19;100.00;101531.66;3055207;19;19918;-51
2022/10/09 12:41:58;;;;;;;;;;;;;;;17.05;100.00;101530.91;3054770;19;19937;-51
2022/10/09 12:43:05;;;;;;;;;;;;;;;16.94;100.00;101529.00;3055306;19;20460;-50
2022/10/09 12:44:10;;;;;;;;;;;;;;;16.49;100.00;101531.25;3055092;19;19939;-50
2022/10/09 12:45:16;;;;;;;;;;;;;;;16.48;100.00;101528.66;3055228;19;20262;-50
2022/10/09 12:46:36;;;;;;;;;;;;;;;16.40;100.00;101531.91;3055223;19;19943;-50
2022/10/09 12:47:38;;;;;;;;;;;;;;;16.36;100.00;101532.22;3055147;19;19946;-51
2022/10/09 12:48:44;;;;;;;;;;;;;;;16.28;100.00;101529.19;3055893;19;19922;-51
2022/10/09 12:50:15;;;;;;;;;;;;;;;16.27;100.00;101524.78;3055023;19;19922;-51
2022/10/09 12:51:25;;;;;;;;;;;;;;;16.08;100.00;101546.69;3055119;19;19919;-51
2022/10/09 12:52:27;;;;;;;;;;;;;;;15.93;100.00;101537.84;3055503;19;20289;-51
2022/10/09 12:53:32;;;;;;;;;;;;;;;15.94;100.00;101536.03;3055083;19;19919;-51
2022/10/09 12:54:34;;;;;;;;;;;;;;;16.05;100.00;101531.63;3054920;19;19963;-51
2022/10/09 12:55:42;;;;;;;;;;;;;;;16.09;100.00;101530.44;3054785;19;19922;-51
2022/10/09 12:56:44;;;;;;;;;;;;;;;16.18;100.00;101531.66;3055456;19;19954;-51
2022/10/09 12:57:48;;;;;;;;;;;;;;;16.29;100.00;101539.00;3054771;19;20247;-50
2022/10/09 12:58:50;;;;;;;;;;;;;;;16.11;100.00;101530.34;3055277;19;19927;-51
2022/10/09 12:59:54;;;;;;;;;;;;;;;16.08;100.00;101542.16;3054645;19;19928;-51
2022/10/09 13:00:58;;;;;;;;;;;;;;;16.00;100.00;101539.16;3055143;19;19939;-51
2022/10/09 13:02:03;;;;;;;;;;;;;;;16.19;100.00;101534.22;3055002;19;19922;-51
2022/10/09 13:03:05;;;;;;;;;;;;;;;16.21;100.00;101537.69;3056285;19;20007;-51
2022/10/09 13:04:22;;;;;;;;;;;;;;;16.31;100.00;101531.66;3055587;19;19927;-51
2022/10/09 13:05:37;;;;;;;;;;;;;;;16.30;100.00;101532.66;3054932;19;20239;-51
2022/10/09 13:06:45;;;;;;;;;;;;;;;16.33;100.00;101532.41;3054448;19;19982;-51
2022/10/09 13:07:54;;;;;;;;;;;;;;;16.21;100.00;101536.81;3054940;19;19919;-51
2022/10/09 13:08:57;;;;;;;;;;;;;;;15.98;100.00;101538.38;3054557;19;20488;-51
2022/10/09 13:10:03;;;;;;;;;;;;;;;15.85;100.00;101530.25;3054808;19;20290;-51
2022/10/09 13:11:14;;;;;;;;;;;;;;;15.88;100.00;101536.41;3054636;19;19923;-51
2022/10/09 13:12:17;;;;;;;;;;;;;;;15.77;100.00;101538.00;3054694;19;19923;-51
2022/10/09 13:13:23;;;;;;;;;;;;;;;15.69;100.00;101544.88;3054518;19;20488;-51
2022/10/09 13:14:31;;;;;;;;;;;;;;;15.64;100.00;101531.69;3054567;19;19927;-51
2022/10/09 13:15:36;;;;;;;;;;;;;;;15.61;100.00;101531.03;3055168;19;19961;-50
2022/10/09 13:16:46;;;;;;;;;;;;;;;15.53;100.00;101533.34;3055492;19;19941;-50
2022/10/09 13:17:51;;;;;;;;;;;;;;;15.47;100.00;101534.59;3055664;19;19923;-51
2022/10/09 13:19:00;;;;;;;;;;;;;;;15.45;100.00;101533.84;3055457;19;19934;-51
2022/10/09 13:20:06;;;;;;;;;;;;;;;15.41;100.00;101535.88;3055564;19;19958;-51
2022/10/09 13:21:40;;;;;;;;;;;;;;;15.43;100.00;101533.94;3054197;19;19919;-51
2022/10/09 13:22:56;;;;;;;;;;;;;;;15.59;100.00;101532.94;3054656;19;20030;-50
2022/10/09 13:24:09;;;;;;;;;;;;;;;15.69;100.00;101539.47;3058562;19;19919;-51
2022/10/09 13:25:13;;;;;;;;;;;;;;;15.67;100.00;101541.41;3058535;19;19923;-50
2022/10/09 13:26:22;;;;;;;;;;;;;;;15.67;100.00;101536.03;3058808;19;20695;-50
2022/10/09 13:27:31;;;;;;;;;;;;;;;15.66;100.00;101528.91;3058375;19;20360;-51
2022/10/09 13:28:33;;;;;;;;;;;;;;;15.66;100.00;101535.16;3057663;19;20367;-51
2022/10/09 13:29:38;;;;;;;;;;;;;;;15.62;100.00;101528.25;3057689;19;20373;-50
2022/10/09 13:30:40;;;;;;;;;;;;;;;15.55;100.00;101520.69;3058749;19;19930;-51
2022/10/09 13:31:44;;;;;;;;;;;;;;;15.46;100.00;101522.09;3058085;19;20663;-50
2022/10/09 13:32:49;;;;;;;;;;;;;;;15.31;100.00;101518.59;3058731;19;19926;-51
2022/10/09 13:33:51;;;;;;;;;;;;;;;15.25;100.00;101518.97;3058596;19;19927;-51
2022/10/09 13:34:56;;;;;;;;;;;;;;;15.19;100.00;101518.53;3058414;19;19943;-51
2022/10/09 13:35:58;;;;;;;;;;;;;;;15.06;100.00;101518.44;3058134;19;20338;-51
2022/10/09 13:37:03;;;;;;;;;;;;;;;14.99;100.00;101523.34;3057276;19;19978;-50
2022/10/09 13:38:07;;;;;;;;;;;;;;;14.96;100.00;101514.63;3058368;19;19919;-51
2022/10/09 13:39:11;;;;;;;;;;;;;;;14.92;100.00;101518.47;3058306;19;20277;-51
2022/10/09 13:40:18;;;;;;;;;;;;;;;14.88;100.00;101514.22;3058103;19;19987;-50
2022/10/09 13:41:21;;;;;;;;;;;;;;;14.89;100.00;101515.97;3058808;19;20444;-51
2022/10/09 13:42:27;;;;;;;;;;;;;;;14.87;100.00;101517.88;3057035;19;20337;-51
2022/10/09 13:43:29;;;;;;;;;;;;;;;14.85;100.00;101514.44;3058007;19;19927;-51
2022/10/09 13:44:34;;;;;;;;;;;;;;;14.83;100.00;101514.53;3058234;19;19919;-51
2022/10/09 13:45:36;;;;;;;;;;;;;;;14.88;100.00;101519.59;3058412;19;19926;-50
2022/10/09 13:46:40;;;;;;;;;;;;;;;14.93;100.00;101512.13;3057993;19;20042;-51
2022/10/09 13:47:42;;;;;;;;;;;;;;;15.02;100.00;101516.91;3058391;19;20527;-51
2022/10/09 13:48:46;;;;;;;;;;;;;;;15.10;100.00;101514.59;3058197;19;19945;-51
2022/10/09 13:49:51;;;;;;;;;;;;;;;15.10;100.00;101514.59;3058012;19;19922;-51
2022/10/09 13:50:53;;;;;;;;;;;;;;;15.08;100.00;101516.53;3058244;19;19942;-50
2022/10/09 13:51:57;;;;;;;;;;;;;;;15.07;100.00;101512.13;3057876;19;20284;-51
2022/10/09 13:52:59;;;;;;;;;;;;;;;15.10;100.00;101519.97;3058335;19;19927;-50
2022/10/09 13:54:03;;;;;;;;;;;;;;;15.13;100.00;101509.03;3058133;19;19953;-50
2022/10/09 13:55:08;;;;;;;;;;;;;;;15.14;100.00;101519.69;3058352;19;19915;-51
2022/10/09 13:56:10;;;;;;;;;;;;;;;15.04;100.00;101520.38;3058303;19;19943;-51
2022/10/09 13:57:14;;;;;;;;;;;;;;;15.04;100.00;101515.00;3057934;19;20019;-51
2022/10/09 13:58:16;;;;;;;;;;;;;;;15.03;100.00;101519.50;3058017;19;19946;-51
2022/10/09 13:59:23;;;;;;;;;;;;;;;15.08;100.00;101513.84;3058073;19;19927;-51
2022/10/09 14:00:27;;;;;;;;;;;;;;;15.10;100.00;101517.28;3057861;19;20334;-50
2022/10/09 14:01:29;;;;;;;;;;;;;;;15.03;100.00;101518.66;3057023;19;20294;-51
2022/10/09 14:02:34;;;;;;;;;;;;;;;15.05;100.00;101511.34;3057872;19;19939;-51
2022/10/09 14:03:36;;;;;;;;;;;;;;;15.00;100.00;101513.44;3058394;19;19919;-50
2022/10/09 14:04:40;;;;;;;;;;;;;;;14.95;100.00;101515.59;3057469;19;20314;-51
2022/10/09 14:05:43;;;;;;;;;;;;;;;14.92;100.00;101527.38;3058029;19;19927;-51
2022/10/09 14:06:47;;;;;;;;;;;;;;;14.88;100.00;101519.59;3057639;19;20623;-50
2022/10/09 14:07:49;;;;;;;;;;;;;;;14.87;100.00;101523.25;3058249;19;19919;-50
2022/10/09 14:08:54;;;;;;;;;;;;;;;14.84;100.00;101523.47;3057821;19;19936;-51
2022/10/09 14:09:58;;;;;;;;;;;;;;;14.86;100.00;101532.28;3058066;19;19938;-50
2022/10/09 14:11:00;;;;;;;;;;;;;;;14.77;100.00;101517.59;3057925;19;19923;-51
2022/10/09 14:12:05;;;;;;;;;;;;;;;14.73;100.00;101516.91;3058208;19;19962;-51
2022/10/09 14:13:07;;;;;;;;;;;;;;;14.73;100.00;101526.84;3058003;19;19950;-50
2022/10/09 14:14:11;;;;;;;;;;;;;;;14.70;100.00;101525.19;3057965;19;19946;-51
2022/10/09 14:15:15;;;;;;;;;;;;;;;14.63;100.00;101529.19;3057999;19;20266;-50
2022/10/09 14:16:17;;;;;;;;;;;;;;;14.54;100.00;101524.41;3058078;19;20238;-51
2022/10/09 14:17:22;;;;;;;;;;;;;;;14.47;100.00;101517.69;3057756;19;19974;-50
2022/10/09 14:18:23;;;;;;;;;;;;;;;14.39;100.00;101522.63;3058163;19;19931;-50
2022/10/09 14:19:28;;;;;;;;;;;;;;;14.26;100.00;101530.53;3057519;19;19929;-50
2022/10/09 14:20:30;;;;;;;;;;;;;;;14.26;100.00;101527.00;3057976;19;20351;-50